Detall de PIREP

Printer-friendly versionPDF version

[2017/12/24 08:18:00]
Flight IATA:CT2112
Pilot Number:041
Company ICAO:CAT
Aircraft Type:B738/F
PAX:120
Departing Airport: LEVC
Destination Airport: LEZL
Alternate Airport:LEMG
Online: VATSIM
Route:ASTR4F ASTRO UM985 XEBAR/N0437F390 UM985 VIBAS VIBA4F
Flight Level:FL400
No Slew and time accel
No pause
Crash detect
Detect pilot in Cockpit between each 30 and 45 minutes
08:18 Zero fuel Weight: 121955 Lbs, Fuel Weight: 16358 Lbs
08:18 VATSIM:LEVC 230800Z 30009KT 9999 FEW025 BKN030 08/02 Q1034 NOSIG
08:18 VATSIM:LEZL 230800Z 06006KT CAVOK 07/05 Q1031 NOSIG
08:18 VOICE CATALONIAN
08:28 Parking Brakes off
08:33 Take-off
08:33 Take off Weight: 137849 Lbs
08:33 Wind: 298º @ 007 Knots Heading: 296º
08:33 POS N39º 29´ 22´´ W000º 28´ 55´´
08:33 Gear Up: 175 Knots
08:33 TOC
08:33 Fuel Weight: 15877 Lb
08:33 Flaps:3 at 177 Knots
08:33 TOD
08:33 Fuel Weight: 15859 Lb
08:33 Flaps:2 at 208 Knots
08:33 Flaps:1 at 208 Knots
08:33 Flaps:0 at 219 Knots
08:48 Wind:299º@036 Knots Heading: 236º Ground Speed: 370 Knots Altitude 35557 ft
09:03 Wind:304º@044 Knots Heading: 231º Ground Speed: 439 Knots Altitude 39471 ft
09:18 Wind:323º@024 Knots Heading: 284º Ground Speed: 353 Knots Altitude 22083 ft
09:25 Flaps:1 at 236 Knots
09:25 Flaps:2 at 222 Knots
09:28 Flaps:3 at 171 Knots
09:28 Flaps:4 at 167 Knots
09:32 Flaps:5 at 152 Knots
09:32 Flaps:6 at 150 Knots
09:32 Gear Down: 149 Knots
09:33 Wind:045º@004 Knots Heading: 086º Ground Speed: 148 Knots Altitude 2742 ft
09:33 Flaps:7 at 149 Knots
09:36 TouchDown:Rate -352 ft/min Speed: 137 Knots
09:36 VATSIM:LEZL 230900Z 04002KT CAVOK 08/05 Q1032 NOSIG
09:36 Land
09:36 Wind:047º@004 Knots
09:36 Heading: 088º
09:36 Flight Duration: 01:03
09:36 Landing Weight: 132736 Lbs
09:36 POS N37º 25´ 04´´ W005º 53´ 41´´
09:40 Parking brakes on
09:40 Block to Block Duration: 01:12
09:40 Final Fuel: 10566 Lbls
09:40 Spent Fuel: 5791 Lbls
09:40 Flight Length: 355 NM
09:40 TOD Land Length: 355 NM

Exportar CSV

Powered by Drupal - Modified by Danger4k